Terminal Aerodrome Forecast
Issued by NWS Cleveland, OH

Home | Current Version | Previous Version | Graphics & Text | Print | Product List | Glossary On
Versions: 1 2 3 4 5 6 7 8 9 10 11 12 13 14 15
353
FTUS41 KCLE 151133
TAFTOL
TAF
KTOL 151133Z 1512/1612 22015G25KT P6SM VCSH BKN028
      TEMPO 1513/1515 6SM -SHRA BKN025
     FM151500 24020G35KT 5SM -SHRA OVC020
      TEMPO 1515/1517 26025G38KT 6SM -SHRA BKN035
     FM151700 28022G32KT P6SM OVC025
     FM160000 30014KT P6SM BKN035
     FM160400 31009KT P6SM SCT040=

USA.gov is the U.S. government's official web portal to all federal, state and local government web resources and services.